Time;durP1;ratioP1;P1;durP2;ratioP2;P2;SDS_P1;SDS_P2;PMS_P1;PMS_P2;Temp;Humidity;BMP_temperature;BMP_pressure;BME280_temperature;BME280_humidity;BME280_pressure;Samples;Min_cycle;Max_cycle;Signal;HPM_P1;HPM_P2
2021/01/15 00:00:06;;;;;;;0.20;0.20;;;;;;;-0.85;100.00;100955.78;4991605;28;20045;-84
2021/01/15 00:03:09;;;;;;;0.20;0.20;;;;;;;-0.88;100.00;100953.78;4982295;28;20046;-84
2021/01/15 00:06:19;;;;;;;0.30;0.30;;;;;;;-0.98;100.00;100952.53;4991097;28;20859;-83
2021/01/15 00:09:24;;;;;;;0.20;0.20;;;;;;;-1.00;100.00;100949.38;4995797;28;21056;-83
2021/01/15 00:12:27;;;;;;;0.47;0.47;;;;;;;-1.07;100.00;100948.47;4998354;28;20038;-83
2021/01/15 00:15:31;;;;;;;0.30;0.30;;;;;;;-1.08;100.00;100952.34;4986137;28;20049;-83
2021/01/15 00:18:34;;;;;;;0.50;0.50;;;;;;;-1.12;100.00;100962.44;4996788;28;20045;-83
2021/01/15 00:21:48;;;;;;;0.10;0.10;;;;;;;-1.10;100.00;100971.06;4985675;28;20046;-83
2021/01/15 00:24:52;;;;;;;0.40;0.40;;;;;;;-1.08;100.00;100966.00;4997617;28;20040;-82
2021/01/15 00:27:55;;;;;;;0.40;0.40;;;;;;;-1.07;100.00;100970.34;4997245;28;20498;-83
2021/01/15 00:30:59;;;;;;;0.38;0.38;;;;;;;-1.04;100.00;100958.69;4996026;28;20693;-83
2021/01/15 00:34:04;;;;;;;0.30;0.30;;;;;;;-1.04;100.00;100969.63;4985885;28;20053;-83
2021/01/15 00:37:08;;;;;;;0.40;0.40;;;;;;;-1.07;100.00;100970.34;4998775;28;20543;-83
2021/01/15 00:40:12;;;;;;;0.40;0.40;;;;;;;-1.11;100.00;100964.03;4989485;28;20365;-83
2021/01/15 00:43:15;;;;;;;0.30;0.30;;;;;;;-1.14;100.00;100971.03;4989146;28;20042;-83
2021/01/15 00:46:32;;;;;;;0.30;0.30;;;;;;;-1.09;100.00;100980.84;4979685;28;20811;-83
2021/01/15 00:49:36;;;;;;;0.20;0.20;;;;;;;-1.11;100.00;100986.69;4982414;28;20050;-83
2021/01/15 00:52:40;;;;;;;0.20;0.20;;;;;;;-1.09;100.00;100989.84;4970746;28;20050;-83
2021/01/15 00:55:43;;;;;;;0.40;0.40;;;;;;;-1.07;100.00;100992.22;4982584;28;20033;-82
2021/01/15 00:58:49;;;;;;;0.35;0.35;;;;;;;-1.06;100.00;100993.78;4981025;28;20049;-83
2021/01/15 01:01:52;;;;;;;0.40;0.40;;;;;;;-1.04;100.00;100991.47;4980931;28;20045;-81
2021/01/15 01:04:56;;;;;;;0.50;0.50;;;;;;;-1.03;100.00;100982.09;4979101;28;21440;-82
2021/01/15 01:07:59;;;;;;;0.40;0.40;;;;;;;-0.96;100.00;100993.16;4979606;28;20076;-83
2021/01/15 01:11:04;;;;;;;0.20;0.20;;;;;;;-0.91;100.00;101006.50;4979420;28;20045;-83
2021/01/15 01:14:07;;;;;;;0.30;0.30;;;;;;;-0.88;100.00;101000.28;4981452;28;20041;-83
2021/01/15 01:17:12;;;;;;;0.20;0.20;;;;;;;-0.85;100.00;100999.53;4980875;28;20061;-83
2021/01/15 01:20:15;;;;;;;0.30;0.30;;;;;;;-0.89;100.00;100996.75;4979876;28;20999;-83
2021/01/15 01:23:19;;;;;;;0.35;0.35;;;;;;;-0.95;100.00;101009.16;4978426;28;20053;-83
2021/01/15 01:26:23;;;;;;;0.20;0.20;;;;;;;-0.99;100.00;101004.81;4980112;28;20038;-82
2021/01/15 01:29:27;;;;;;;0.30;0.30;;;;;;;-1.06;100.00;101012.94;4979890;28;21018;-83
2021/01/15 01:32:30;;;;;;;0.30;0.30;;;;;;;-1.12;100.00;101009.72;4981028;28;21040;-83
2021/01/15 01:35:34;;;;;;;0.20;0.20;;;;;;;-1.17;100.00;101014.72;4979937;28;20041;-83
2021/01/15 01:38:38;;;;;;;0.40;0.40;;;;;;;-1.19;100.00;101019.75;4978139;28;20072;-81
2021/01/15 01:41:42;;;;;;;0.32;0.32;;;;;;;-1.27;100.00;101016.13;4967443;28;20586;-82
2021/01/15 01:44:46;;;;;;;0.40;0.40;;;;;;;-1.33;100.00;101017.59;4984945;28;20041;-83
2021/01/15 01:47:49;;;;;;;0.10;0.10;;;;;;;-1.39;100.00;101010.06;4983392;28;20045;-82
2021/01/15 01:50:53;;;;;;;0.47;0.47;;;;;;;-1.44;100.00;101022.09;4996824;28;20304;-83
2021/01/15 01:53:58;;;;;;;0.50;0.50;;;;;;;-1.47;100.00;101027.50;4976098;28;20037;-82
2021/01/15 01:57:04;;;;;;;0.40;0.40;;;;;;;-1.55;100.00;101035.59;4989289;28;20049;-83
2021/01/15 02:00:08;;;;;;;0.20;0.20;;;;;;;-1.59;100.00;101042.13;4973071;28;20042;-81
2021/01/15 02:03:18;;;;;;;0.45;0.45;;;;;;;-1.64;100.00;101045.16;4986295;28;20046;-82
2021/01/15 02:06:21;;;;;;;0.43;0.43;;;;;;;-1.66;100.00;101034.63;4983376;28;20054;-82
2021/01/15 02:09:44;;;;;;;0.30;0.30;;;;;;;-1.67;100.00;101045.91;4998425;28;20049;-81
2021/01/15 02:13:09;;;;;;;0.47;0.47;;;;;;;-1.69;100.00;101042.75;5002880;28;20034;-83
2021/01/15 02:16:22;;;;;;;0.38;0.38;;;;;;;-1.73;100.00;101056.31;4989257;28;20267;-80
2021/01/15 02:19:52;;;;;;;0.50;0.50;;;;;;;-1.74;100.00;101051.25;4998377;28;20053;-81
2021/01/15 02:23:12;;;;;;;0.40;0.40;;;;;;;-1.78;100.00;101067.56;4994083;28;20041;-81
2021/01/15 02:26:46;;;;;;;0.40;0.40;;;;;;;-1.82;100.00;101082.31;4999898;28;20402;-82
2021/01/15 02:30:20;;;;;;;0.30;0.30;;;;;;;-1.85;100.00;101056.50;4999890;28;20985;-81
2021/01/15 02:33:27;;;;;;;0.30;0.30;;;;;;;-1.85;100.00;101072.88;4999327;28;20410;-80
2021/01/15 02:36:37;;;;;;;0.30;0.30;;;;;;;-1.90;100.00;101073.19;5022842;28;20052;-79
2021/01/15 02:39:48;;;;;;;0.30;0.30;;;;;;;-1.90;100.00;101075.91;5017603;28;20041;-81
2021/01/15 02:42:55;;;;;;;0.50;0.50;;;;;;;-1.90;100.00;101073.19;5029105;28;20056;-81
2021/01/15 02:46:02;;;;;;;0.35;0.35;;;;;;;-1.95;100.00;101065.28;5013739;28;20763;-82
2021/01/15 02:49:09;;;;;;;0.30;0.30;;;;;;;-1.94;100.00;101080.50;5008576;28;20824;-81
2021/01/15 02:52:12;;;;;;;0.50;0.50;;;;;;;-1.98;100.00;101079.66;4997272;28;20082;-80
2021/01/15 02:55:16;;;;;;;0.38;0.38;;;;;;;-2.01;100.00;101080.38;5008142;28;20406;-82
2021/01/15 02:58:20;;;;;;;0.30;0.30;;;;;;;-2.06;100.00;101077.97;5007672;28;20057;-81
2021/01/15 03:01:24;;;;;;;0.40;0.40;;;;;;;-2.08;100.00;101074.78;5010385;28;20053;-80
2021/01/15 03:04:40;;;;;;;0.30;0.30;;;;;;;-2.09;100.00;101084.13;5009629;28;20056;-81
2021/01/15 03:07:46;;;;;;;0.30;0.30;;;;;;;-2.14;100.00;101089.84;5009139;28;20053;-83
2021/01/15 03:10:51;;;;;;;0.38;0.38;;;;;;;-2.13;100.00;101094.19;4997034;28;21200;-82
2021/01/15 03:13:57;;;;;;;0.50;0.50;;;;;;;-2.16;100.00;101103.06;5008443;28;20041;-80
2021/01/15 03:17:04;;;;;;;0.47;0.47;;;;;;;-2.16;100.00;101105.00;4996501;28;20179;-80
2021/01/15 03:20:09;;;;;;;0.30;0.30;;;;;;;-2.18;100.00;101108.09;5008804;28;20068;-81
2021/01/15 03:23:13;;;;;;;0.50;0.50;;;;;;;-2.23;100.00;101105.66;4995607;28;20080;-79
2021/01/15 03:26:17;;;;;;;0.20;0.20;;;;;;;-2.26;100.00;101111.84;5007063;28;20795;-81
2021/01/15 03:29:20;;;;;;;0.40;0.40;;;;;;;-2.26;100.00;101108.31;5008808;28;20054;-81
2021/01/15 03:32:24;;;;;;;0.40;0.40;;;;;;;-2.30;100.00;101109.03;5009676;28;20042;-82
2021/01/15 03:35:29;;;;;;;0.30;0.30;;;;;;;-2.33;100.00;101115.22;5008846;28;20057;-80
2021/01/15 03:38:33;;;;;;;0.50;0.50;;;;;;;-2.26;100.00;101122.75;5008371;28;20053;-83
2021/01/15 03:41:36;;;;;;;0.40;0.40;;;;;;;-2.20;100.00;101124.03;5009180;28;20402;-81
2021/01/15 03:44:40;;;;;;;0.40;0.40;;;;;;;-2.15;100.00;101123.75;5013324;28;20064;-80
2021/01/15 03:47:44;;;;;;;0.40;0.40;;;;;;;-2.11;100.00;101124.63;5016059;28;20049;-81
2021/01/15 03:50:51;;;;;;;0.40;0.40;;;;;;;-2.08;100.00;101125.84;5028074;28;20197;-81
2021/01/15 03:53:55;;;;;;;0.40;0.40;;;;;;;-2.02;100.00;101127.13;5026967;28;20040;-82
2021/01/15 03:56:59;;;;;;;0.30;0.30;;;;;;;-1.97;100.00;101141.28;5027598;28;20101;-82
2021/01/15 04:00:05;;;;;;;0.40;0.40;;;;;;;-1.95;100.00;101138.97;5015585;28;20533;-82
2021/01/15 04:03:08;;;;;;;0.40;0.40;;;;;;;-1.91;100.00;101134.41;5017483;28;20046;-82
2021/01/15 04:06:12;;;;;;;0.30;0.30;;;;;;;-1.93;100.00;101130.44;5027091;28;20049;-81
2021/01/15 04:09:15;;;;;;;0.45;0.45;;;;;;;-1.89;100.00;101142.22;5026641;28;20118;-81
2021/01/15 04:12:19;;;;;;;0.32;0.32;;;;;;;-1.88;100.00;101146.50;5026623;28;20764;-82
2021/01/15 04:15:22;;;;;;;0.30;0.30;;;;;;;-1.86;100.00;101147.72;5019935;28;20057;-81
2021/01/15 04:18:26;;;;;;;0.20;0.20;;;;;;;-1.81;100.00;101150.19;5029796;28;20056;-81
2021/01/15 04:21:29;;;;;;;0.30;0.30;;;;;;;-1.80;100.00;101150.97;5031998;28;20109;-80
2021/01/15 04:24:33;;;;;;;0.30;0.30;;;;;;;-1.79;100.00;101147.88;5019863;28;20037;-81
2021/01/15 04:27:38;;;;;;;0.40;0.40;;;;;;;-1.74;100.00;101155.78;5031587;28;20103;-81
2021/01/15 04:30:41;;;;;;;0.30;0.30;;;;;;;-1.68;100.00;101148.06;5033493;28;20417;-81
2021/01/15 04:33:45;;;;;;;0.10;0.10;;;;;;;-1.59;100.00;101154.91;5030748;28;20042;-81
2021/01/15 04:36:48;;;;;;;0.40;0.40;;;;;;;-1.58;100.00;101170.13;5030982;28;20433;-81
2021/01/15 04:39:52;;;;;;;0.40;0.40;;;;;;;-1.64;100.00;101160.66;5031409;28;20787;-81
2021/01/15 04:43:00;;;;;;;0.50;0.50;;;;;;;-1.65;100.00;101167.28;5030506;28;20049;-81
2021/01/15 04:46:05;;;;;;;0.30;0.30;;;;;;;-1.69;100.00;101182.78;5014638;28;20050;-81
2021/01/15 04:49:11;;;;;;;0.10;0.10;;;;;;;-1.72;100.00;101178.06;5010923;28;20256;-80
2021/01/15 04:52:15;;;;;;;0.50;0.50;;;;;;;-1.72;100.00;101180.00;5012317;28;20110;-81
2021/01/15 04:55:20;;;;;;;0.20;0.20;;;;;;;-1.78;100.00;101182.22;5009411;28;20049;-80
2021/01/15 04:58:25;;;;;;;0.40;0.40;;;;;;;-1.76;100.00;101185.41;5011434;28;20406;-81
2021/01/15 05:01:42;;;;;;;0.32;0.32;;;;;;;-1.72;100.00;101194.44;5012478;28;20050;-80
2021/01/15 05:04:45;;;;;;;0.10;0.10;;;;;;;-1.73;100.00;101190.13;5010812;28;20045;-81
2021/01/15 05:08:09;;;;;;;0.30;0.30;;;;;;;-1.76;100.00;101195.53;5009481;28;20046;-80
2021/01/15 05:11:13;;;;;;;0.40;0.40;;;;;;;-1.80;100.00;101200.88;5010690;28;20049;-80
2021/01/15 05:14:18;;;;;;;0.30;0.30;;;;;;;-1.79;100.00;101202.47;5010047;28;20790;-80
2021/01/15 05:17:25;;;;;;;0.40;0.40;;;;;;;-1.76;100.00;101201.78;5008343;28;20786;-80
2021/01/15 05:20:30;;;;;;;0.30;0.30;;;;;;;-1.77;100.00;101200.19;5011270;28;20042;-80
2021/01/15 05:23:34;;;;;;;0.20;0.20;;;;;;;-1.83;100.00;101193.44;5010649;28;20517;-79
2021/01/15 05:26:39;;;;;;;0.30;0.30;;;;;;;-1.84;100.00;101202.00;5010330;28;20061;-80
2021/01/15 05:29:43;;;;;;;0.30;0.30;;;;;;;-1.87;100.00;101211.69;5010704;28;20611;-79
2021/01/15 05:32:48;;;;;;;0.10;0.10;;;;;;;-1.91;100.00;101210.81;5012421;28;20068;-79
2021/01/15 05:35:52;;;;;;;0.50;0.50;;;;;;;-1.95;100.00;101199.00;5010601;28;20079;-81
2021/01/15 05:39:17;;;;;;;0.40;0.40;;;;;;;-1.93;100.00;101210.41;5010749;28;20057;-80
2021/01/15 05:42:20;;;;;;;0.38;0.38;;;;;;;-1.95;100.00;101218.13;5009231;28;20042;-79
2021/01/15 05:45:24;;;;;;;0.30;0.30;;;;;;;-1.95;100.00;101220.84;5008926;28;20052;-80
2021/01/15 05:48:28;;;;;;;0.40;0.40;;;;;;;-1.97;100.00;101217.69;5030206;28;20037;-81
2021/01/15 05:51:33;;;;;;;0.20;0.20;;;;;;;-1.94;100.00;101217.00;5018284;28;20069;-79
2021/01/15 05:54:36;;;;;;;0.20;0.20;;;;;;;-1.96;100.00;101219.28;5030548;28;20045;-80
2021/01/15 05:57:40;;;;;;;0.22;0.22;;;;;;;-2.03;100.00;101219.13;5029539;28;20056;-79
2021/01/15 06:00:44;;;;;;;0.40;0.40;;;;;;;-2.07;100.00;101212.00;5031137;28;20045;-79
2021/01/15 06:03:54;;;;;;;0.50;0.50;;;;;;;-2.17;100.00;101207.13;5017392;28;20049;-80
2021/01/15 06:07:01;;;;;;;0.43;0.43;;;;;;;-2.19;100.00;101199.31;5028915;28;20037;-82
2021/01/15 06:10:05;;;;;;;0.40;0.40;;;;;;;-2.20;100.00;101208.63;5029655;28;20045;-82
2021/01/15 06:13:08;;;;;;;0.30;0.30;;;;;;;-2.16;100.00;101214.16;5029500;28;20808;-80
2021/01/15 06:16:17;;;;;;;0.40;0.40;;;;;;;-2.15;100.00;101210.28;5029719;28;20798;-81
2021/01/15 06:19:20;;;;;;;0.30;0.30;;;;;;;-2.14;100.00;101215.38;5016298;28;20057;-83
2021/01/15 06:22:37;;;;;;;0.60;0.60;;;;;;;-2.13;100.00;101214.25;5030456;28;20508;-83
2021/01/15 06:25:58;;;;;;;0.40;0.40;;;;;;;-2.17;100.00;101199.72;5030459;28;20041;-83
2021/01/15 06:29:12;;;;;;;0.47;0.47;;;;;;;-2.15;100.00;101205.63;5029876;28;20509;-83
2021/01/15 06:32:24;;;;;;;0.30;0.30;;;;;;;-2.17;100.00;101207.91;5017015;28;20290;-82
2021/01/15 06:35:29;;;;;;;0.20;0.20;;;;;;;-2.17;100.00;101207.13;5015672;28;20315;-83
2021/01/15 06:38:33;;;;;;;0.22;0.22;;;;;;;-2.19;100.00;101206.69;5016211;28;20068;-83
2021/01/15 06:41:40;;;;;;;0.30;0.30;;;;;;;-2.27;100.00;101211.19;5017752;28;20072;-82
2021/01/15 06:44:53;;;;;;;0.30;0.30;;;;;;;-2.26;100.00;101215.50;5024114;28;20400;-83
2021/01/15 06:48:08;;;;;;;0.50;0.50;;;;;;;-2.23;100.00;101219.47;5009961;28;20042;-82
2021/01/15 06:51:11;;;;;;;0.20;0.20;;;;;;;-2.23;100.00;101230.38;4997242;28;20038;-83
2021/01/15 06:54:38;;;;;;;0.13;0.13;;;;;;;-2.23;100.00;101231.16;5008809;28;20038;-82
2021/01/15 06:57:46;;;;;;;0.30;0.30;;;;;;;-2.23;100.00;101230.38;5006322;28;20234;-82
2021/01/15 07:01:20;;;;;;;0.40;0.40;;;;;;;-2.21;100.00;101234.34;4998816;28;20859;-82
2021/01/15 07:04:29;;;;;;;0.40;0.40;;;;;;;-2.23;100.00;101231.16;5007943;28;20042;-82
2021/01/15 07:07:33;;;;;;;0.30;0.30;;;;;;;-2.25;100.00;101232.66;5009239;28;20041;-82
2021/01/15 07:10:37;;;;;;;0.50;0.50;;;;;;;-2.23;100.00;101247.50;5008772;28;20045;-82
2021/01/15 07:13:43;;;;;;;0.30;0.30;;;;;;;-2.23;100.00;101269.34;5008650;28;20048;-82
2021/01/15 07:16:53;;;;;;;0.43;0.43;;;;;;;-2.23;100.00;101265.84;5008932;28;20042;-85
2021/01/15 07:20:19;;;;;;;0.30;0.30;;;;;;;-2.19;100.00;101274.91;5008823;28;20060;-80
2021/01/15 07:23:52;;;;;;;0.40;0.40;;;;;;;-2.27;100.00;101273.94;5007189;28;20042;-80
2021/01/15 07:26:55;;;;;;;0.30;0.30;;;;;;;-2.29;100.00;101270.75;4995767;28;20045;-80
2021/01/15 07:29:59;;;;;;;0.35;0.35;;;;;;;-2.39;100.00;101265.84;5007478;28;20550;-79
2021/01/15 07:33:06;;;;;;;0.28;0.28;;;;;;;-2.43;100.00;101281.34;5010542;28;20600;-80
2021/01/15 07:36:33;;;;;;;0.32;0.32;;;;;;;-2.48;100.00;101281.63;5008373;28;20050;-82
2021/01/15 07:39:56;;;;;;;0.47;0.47;;;;;;;-2.55;100.00;101270.53;5007194;28;20386;-82
2021/01/15 07:43:00;;;;;;;0.40;0.40;;;;;;;-2.58;100.00;101280.22;4996671;28;20048;-82
2021/01/15 07:46:04;;;;;;;0.40;0.40;;;;;;;-2.54;100.00;101281.09;5024449;28;20041;-82
2021/01/15 07:49:08;;;;;;;0.22;0.22;;;;;;;-2.58;100.00;101290.34;5027593;28;20060;-82
2021/01/15 07:52:11;;;;;;;0.40;0.40;;;;;;;-2.70;100.00;101284.94;5028067;28;20413;-82
2021/01/15 07:55:15;;;;;;;0.40;0.40;;;;;;;-2.72;100.00;101292.69;5028113;28;20042;-82
2021/01/15 07:58:42;;;;;;;0.38;0.38;;;;;;;-2.68;100.00;101293.56;5014491;28;20064;-82
2021/01/15 08:01:47;;;;;;;0.43;0.43;;;;;;;-2.69;100.00;101294.72;5029277;28;20046;-82
2021/01/15 08:05:02;;;;;;;0.35;0.35;;;;;;;-2.68;100.00;101296.28;5028117;28;20401;-82
2021/01/15 08:08:08;;;;;;;0.40;0.40;;;;;;;-2.70;100.00;101293.13;4996584;28;20077;-82
2021/01/15 08:11:12;;;;;;;0.52;0.52;;;;;;;-2.70;100.00;101298.59;4988194;28;20502;-82
2021/01/15 08:14:17;;;;;;;0.30;0.30;;;;;;;-2.68;100.00;101296.28;4999613;28;20788;-83
2021/01/15 08:17:26;;;;;;;0.45;0.45;;;;;;;-2.71;100.00;101297.00;4988308;28;20511;-82
2021/01/15 08:20:30;;;;;;;0.30;0.30;;;;;;;-2.72;100.00;101298.13;4988871;28;20049;-82
2021/01/15 08:23:34;;;;;;;0.30;0.30;;;;;;;-2.74;100.00;101295.78;4998562;28;20045;-82
2021/01/15 08:26:57;;;;;;;0.30;0.30;;;;;;;-2.74;100.00;101303.16;4988904;28;20053;-81
2021/01/15 08:30:04;;;;;;;0.40;0.40;;;;;;;-2.70;100.00;101301.31;4992064;28;20535;-82
2021/01/15 08:33:07;;;;;;;0.40;0.40;;;;;;;-2.68;100.00;101302.53;4990507;28;20049;-82
2021/01/15 08:36:12;;;;;;;0.32;0.32;;;;;;;-2.71;100.00;101313.38;4976195;28;20747;-82
2021/01/15 08:39:16;;;;;;;0.40;0.40;;;;;;;-2.81;100.00;101305.69;4979592;28;20051;-82
2021/01/15 08:42:21;;;;;;;0.38;0.38;;;;;;;-2.85;100.00;101318.44;4988092;28;20175;-82
2021/01/15 08:45:26;;;;;;;0.47;0.47;;;;;;;-2.88;100.00;101330.06;4988556;28;20038;-82
2021/01/15 08:48:31;;;;;;;0.40;0.40;;;;;;;-2.80;100.00;101342.72;4969720;28;20061;-83
2021/01/15 08:51:36;;;;;;;0.30;0.30;;;;;;;-2.73;100.00;101337.47;4980460;28;20526;-83
2021/01/15 08:54:40;;;;;;;0.50;0.50;;;;;;;-2.66;100.00;101332.16;4979577;28;20474;-83
2021/01/15 08:57:46;;;;;;;0.32;0.32;;;;;;;-2.65;100.00;101337.28;4968737;28;20419;-83
2021/01/15 09:00:50;;;;;;;0.35;0.35;;;;;;;-2.69;100.00;101338.34;4972456;28;20426;-82
2021/01/15 09:04:01;;;;;;;0.40;0.40;;;;;;;-2.66;100.00;101324.00;4972744;28;20854;-83
2021/01/15 09:07:06;;;;;;;0.38;0.38;;;;;;;-2.59;100.00;101332.38;4974170;28;20061;-84
2021/01/15 09:10:12;;;;;;;0.60;0.60;;;;;;;-2.71;100.00;101340.63;5002346;28;20061;-80
2021/01/15 09:13:18;;;;;;;0.30;0.30;;;;;;;-2.73;100.00;101343.69;4994003;28;20390;-80
2021/01/15 09:16:24;;;;;;;0.30;0.30;;;;;;;-2.79;100.00;101344.28;4979909;28;20049;-79
2021/01/15 09:19:27;;;;;;;0.30;0.30;;;;;;;-2.80;100.00;101353.63;4973578;28;20054;-79
2021/01/15 09:22:31;;;;;;;0.30;0.30;;;;;;;-2.82;100.00;101364.09;4971902;28;20411;-79
2021/01/15 09:25:35;;;;;;;0.38;0.38;;;;;;;-2.88;100.00;101358.06;4971641;28;20407;-80
2021/01/15 09:28:38;;;;;;;0.32;0.32;;;;;;;-2.80;100.00;101364.53;4971983;28;20415;-80
2021/01/15 09:31:43;;;;;;;0.30;0.30;;;;;;;-2.70;100.00;101375.72;4975346;28;20038;-81
2021/01/15 09:34:46;;;;;;;0.20;0.20;;;;;;;-2.68;100.00;101378.06;4975413;28;20087;-79
2021/01/15 09:37:49;;;;;;;0.30;0.30;;;;;;;-2.67;100.00;101380.47;4975868;28;20887;-80
2021/01/15 09:40:53;;;;;;;0.50;0.50;;;;;;;-2.66;100.00;101381.25;4989118;28;20718;-80
2021/01/15 09:43:56;;;;;;;0.50;0.50;;;;;;;-2.62;100.00;101377.47;4992415;28;20038;-82
2021/01/15 09:47:02;;;;;;;0.50;0.50;;;;;;;-2.62;100.00;101376.72;4987091;28;20056;-80
2021/01/15 09:50:05;;;;;;;0.50;0.50;;;;;;;-2.63;100.00;101386.00;4971703;28;20845;-81
2021/01/15 09:53:09;;;;;;;0.40;0.40;;;;;;;-2.56;100.00;101391.66;4970328;28;20043;-81
2021/01/15 09:56:33;;;;;;;0.40;0.40;;;;;;;-2.58;100.00;101388.50;4966560;28;20058;-81
2021/01/15 09:59:37;;;;;;;0.32;0.32;;;;;;;-2.63;100.00;101380.56;4969887;28;20043;-82
2021/01/15 10:02:40;;;;;;;0.40;0.40;;;;;;;-2.64;100.00;101390.66;4973554;28;20046;-82
2021/01/15 10:05:44;;;;;;;0.40;0.40;;;;;;;-2.63;100.00;101394.19;4972042;28;20043;-81
2021/01/15 10:08:47;;;;;;;0.10;0.10;;;;;;;-2.58;100.00;101393.94;4970726;28;20043;-80
2021/01/15 10:11:51;;;;;;;0.40;0.40;;;;;;;-2.65;100.00;101385.56;4969022;28;20694;-80
2021/01/15 10:14:55;;;;;;;0.32;0.32;;;;;;;-2.62;100.00;101390.34;4970318;28;20039;-81
2021/01/15 10:17:58;;;;;;;0.40;0.40;;;;;;;-2.57;100.00;101379.97;4971291;28;20051;-80
2021/01/15 10:21:03;;;;;;;0.30;0.30;;;;;;;-2.54;100.00;101378.47;4970751;28;20045;-80
2021/01/15 10:24:07;;;;;;;0.22;0.22;;;;;;;-2.52;100.00;101381.63;4970106;28;21081;-81
2021/01/15 10:27:11;;;;;;;0.30;0.30;;;;;;;-2.60;100.00;101383.38;4973535;28;20054;-83
2021/01/15 10:30:15;;;;;;;0.28;0.28;;;;;;;-2.63;100.00;101383.28;4973750;28;20043;-82
2021/01/15 10:33:21;;;;;;;0.25;0.25;;;;;;;-2.56;100.00;101388.94;4971162;28;20050;-81
2021/01/15 10:36:27;;;;;;;0.40;0.40;;;;;;;-2.51;100.00;101388.66;4981530;28;20545;-81
2021/01/15 10:39:31;;;;;;;0.28;0.28;;;;;;;-2.42;100.00;101398.28;4971097;28;20058;-81
2021/01/15 10:42:38;;;;;;;0.40;0.40;;;;;;;-2.28;100.00;101397.06;4971409;28;20488;-82
2021/01/15 10:45:43;;;;;;;0.40;0.40;;;;;;;-2.14;100.00;101400.16;4970016;28;20062;-82
2021/01/15 10:48:47;;;;;;;0.30;0.30;;;;;;;-2.07;100.00;101398.38;4969981;28;21071;-83
2021/01/15 10:51:53;;;;;;;0.20;0.20;;;;;;;-1.94;100.00;101396.34;4971492;28;20411;-81
2021/01/15 10:54:58;;;;;;;0.40;0.40;;;;;;;-1.91;100.00;101393.72;4970182;28;20563;-82
2021/01/15 10:58:01;;;;;;;0.30;0.30;;;;;;;-1.87;100.00;101389.13;4971384;28;20058;-82
2021/01/15 11:01:05;;;;;;;0.30;0.30;;;;;;;-1.85;100.00;101388.75;4984174;28;20154;-82
2021/01/15 11:04:10;;;;;;;0.40;0.40;;;;;;;-1.69;100.00;101390.31;4972338;28;20119;-82
2021/01/15 11:07:14;;;;;;;0.30;0.30;;;;;;;-1.58;100.00;101387.81;4988838;28;20083;-84
2021/01/15 11:10:17;;;;;;;0.30;0.30;;;;;;;-1.64;100.00;101381.06;5000606;28;20289;-84
2021/01/15 11:13:20;;;;;;;0.30;0.30;;;;;;;-1.66;100.00;101384.16;5011202;28;20042;-83
2021/01/15 11:16:24;;;;;;;0.50;0.50;;;;;;;-1.67;100.00;101379.81;5011942;28;20060;-80
2021/01/15 11:19:29;;;;;;;0.35;0.35;;;;;;;-1.66;100.00;101375.97;5009879;28;20049;-82
2021/01/15 11:22:33;;;;;;;0.40;0.40;;;;;;;-1.56;100.00;101375.41;5010068;28;20041;-80
2021/01/15 11:25:36;;;;;;;0.30;0.30;;;;;;;-1.44;100.00;101373.69;5010455;28;20049;-82
2021/01/15 11:28:40;;;;;;;0.40;0.40;;;;;;;-1.42;100.00;101372.19;5009167;28;20042;-80
2021/01/15 11:31:43;;;;;;;0.20;0.20;;;;;;;-1.39;100.00;101385.16;5009803;28;20549;-80
2021/01/15 11:34:47;;;;;;;0.20;0.20;;;;;;;-1.37;100.00;101371.13;5008400;28;20053;-81
2021/01/15 11:37:57;;;;;;;0.35;0.35;;;;;;;-1.39;100.00;101370.69;5008375;28;20541;-81
2021/01/15 11:41:01;;;;;;;0.40;0.40;;;;;;;-1.42;100.00;101369.47;5008560;28;20046;-82
2021/01/15 11:44:05;;;;;;;0.20;0.20;;;;;;;-1.38;100.00;101366.78;5008757;28;20038;-77
2021/01/15 11:47:09;;;;;;;0.30;0.30;;;;;;;-1.32;100.00;101362.66;5007689;28;20742;-79
2021/01/15 11:50:13;;;;;;;0.32;0.32;;;;;;;-1.17;100.00;101368.03;5007368;28;20038;-79
2021/01/15 11:53:16;;;;;;;0.30;0.30;;;;;;;-1.13;100.00;101376.31;5007699;28;20046;-79
2021/01/15 11:56:20;;;;;;;0.30;0.30;;;;;;;-1.03;100.00;101375.72;5005652;28;20052;-79
2021/01/15 11:59:23;;;;;;;0.20;0.20;;;;;;;-0.92;100.00;101371.28;5008435;28;20097;-79
2021/01/15 12:02:30;;;;;;;0.20;0.20;;;;;;;-0.85;100.00;101369.47;5010067;28;20421;-79
2021/01/15 12:05:42;;;;;;;0.30;0.30;;;;;;;-0.78;100.00;101357.88;5008291;28;20034;-79
2021/01/15 12:08:45;;;;;;;0.10;0.10;;;;;;;-0.80;100.00;101362.91;5007378;28;20098;-78
2021/01/15 12:11:49;;;;;;;0.20;0.20;;;;;;;-0.79;100.00;101359.03;5007524;28;20813;-82
2021/01/15 12:14:53;;;;;;;0.20;0.20;;;;;;;-0.81;100.00;101358.59;5008593;28;20038;-80
2021/01/15 12:17:56;;;;;;;0.30;0.30;;;;;;;-0.84;100.00;101356.56;5007623;28;20825;-80
2021/01/15 12:21:00;;;;;;;0.25;0.25;;;;;;;-0.83;100.00;101349.97;5007889;28;20433;-80
2021/01/15 12:24:03;;;;;;;0.30;0.30;;;;;;;-0.80;100.00;101351.97;5008149;28;20045;-79
2021/01/15 12:27:07;;;;;;;0.17;0.17;;;;;;;-0.78;100.00;101338.75;5007097;28;20042;-78
2021/01/15 12:30:11;;;;;;;0.20;0.20;;;;;;;-0.80;100.00;101341.03;5007744;28;20422;-79
2021/01/15 12:33:17;;;;;;;0.10;0.10;;;;;;;-0.76;100.00;101336.44;5009666;28;20498;-80
2021/01/15 12:36:20;;;;;;;0.20;0.20;;;;;;;-0.68;100.00;101338.13;5010166;28;20048;-80
2021/01/15 12:39:24;;;;;;;0.30;0.30;;;;;;;-0.68;100.00;101337.34;5011562;28;20057;-78
2021/01/15 12:42:27;;;;;;;0.40;0.40;;;;;;;-0.68;100.00;101332.66;5012705;28;20049;-76
2021/01/15 12:45:45;;;;;;;0.20;0.20;;;;;;;-0.63;100.00;101340.59;5022622;28;20038;-76
2021/01/15 12:48:49;;;;;;;0.30;0.30;;;;;;;-0.67;100.00;101323.28;5031210;28;20051;-76
2021/01/15 12:51:52;;;;;;;0.20;0.20;;;;;;;-0.64;100.00;101321.78;5034447;28;20754;-76
2021/01/15 12:54:55;;;;;;;0.28;0.28;;;;;;;-0.67;100.00;101326.03;5035008;28;21082;-79
2021/01/15 12:57:59;;;;;;;0.20;0.20;;;;;;;-0.66;100.00;101319.41;5036129;28;20049;-79
2021/01/15 13:01:03;;;;;;;0.20;0.20;;;;;;;-0.65;100.00;101320.97;5039678;28;20090;-79
2021/01/15 13:04:07;;;;;;;0.22;0.22;;;;;;;-0.66;100.00;101316.69;5037598;28;20600;-79
2021/01/15 13:07:10;;;;;;;0.25;0.25;;;;;;;-0.60;100.00;101317.16;5037142;28;20057;-78
2021/01/15 13:10:15;;;;;;;0.30;0.30;;;;;;;-0.53;100.00;101318.09;5041263;28;21233;-77
2021/01/15 13:13:18;;;;;;;0.30;0.30;;;;;;;-0.57;100.00;101319.97;5034101;28;20225;-79
2021/01/15 13:16:23;;;;;;;0.30;0.30;;;;;;;-0.52;100.00;101316.91;5040494;28;20064;-78
2021/01/15 13:19:26;;;;;;;0.20;0.20;;;;;;;-0.48;100.00;101317.00;5044358;28;20088;-78
2021/01/15 13:22:30;;;;;;;0.25;0.25;;;;;;;-0.48;100.00;101327.94;5037163;28;20052;-78
2021/01/15 13:25:36;;;;;;;0.20;0.20;;;;;;;-0.50;100.00;101320.09;5026747;28;20399;-79
2021/01/15 13:28:39;;;;;;;0.30;0.30;;;;;;;-0.46;100.00;101309.19;5032271;28;20044;-79
2021/01/15 13:31:43;;;;;;;0.30;0.30;;;;;;;-0.46;100.00;101307.25;5032050;28;20048;-80
2021/01/15 13:34:46;;;;;;;0.25;0.25;;;;;;;-0.47;100.00;101305.66;5031812;28;20041;-78
2021/01/15 13:37:50;;;;;;;0.20;0.20;;;;;;;-0.47;100.00;101300.19;5030141;28;20041;-80
2021/01/15 13:40:54;;;;;;;0.20;0.20;;;;;;;-0.41;100.00;101293.25;5030121;28;20101;-75
2021/01/15 13:43:57;;;;;;;0.30;0.30;;;;;;;-0.39;100.00;101287.44;5030300;28;20073;-76
2021/01/15 13:47:01;;;;;;;0.35;0.35;;;;;;;-0.40;100.00;101297.59;5011502;28;20498;-76
2021/01/15 13:50:12;;;;;;;0.30;0.30;;;;;;;-0.41;100.00;101287.03;5010074;28;20046;-82
2021/01/15 13:53:21;;;;;;;0.30;0.30;;;;;;;-0.43;100.00;101279.16;5010049;28;20041;-83
2021/01/15 13:56:25;;;;;;;0.30;0.30;;;;;;;-0.43;100.00;101278.34;5015668;28;20577;-80
2021/01/15 13:59:28;;;;;;;0.28;0.28;;;;;;;-0.45;100.00;101265.06;5010990;28;20053;-80
2021/01/15 14:02:32;;;;;;;0.20;0.20;;;;;;;-0.46;100.00;101265.44;5029231;28;20415;-80
2021/01/15 14:05:39;;;;;;;0.30;0.30;;;;;;;-0.46;100.00;101266.22;5029827;28;20045;-81
2021/01/15 14:08:43;;;;;;;0.30;0.30;;;;;;;-0.45;100.00;101259.56;5017169;28;20045;-81
2021/01/15 14:11:46;;;;;;;0.30;0.30;;;;;;;-0.43;100.00;101262.72;5028587;28;20445;-81
2021/01/15 14:14:50;;;;;;;0.20;0.20;;;;;;;-0.43;100.00;101260.00;5006927;28;20093;-81